sensor_id;sensor_type;location;lat;lon;timestamp;pressure;altitude;pressure_sealevel;temperature;humidity
54806;BME280;62866;55.776;37.496;2024-01-25T00:00:17;98625.25;;;0.71;100.00
54806;BME280;62866;55.776;37.496;2024-01-25T00:02:43;98620.47;;;0.66;100.00
54806;BME280;62866;55.776;37.496;2024-01-25T00:05:08;98612.88;;;0.63;100.00
54806;BME280;62866;55.776;37.496;2024-01-25T00:07:33;98608.59;;;0.62;100.00
54806;BME280;62866;55.776;37.496;2024-01-25T00:09:59;98604.03;;;0.64;100.00
54806;BME280;62866;55.776;37.496;2024-01-25T00:12:25;98601.84;;;0.60;100.00
54806;BME280;62866;55.776;37.496;2024-01-25T00:14:51;98602.66;;;0.60;100.00
54806;BME280;62866;55.776;37.496;2024-01-25T00:17:18;98595.75;;;0.59;100.00
54806;BME280;62866;55.776;37.496;2024-01-25T00:19:43;98589.84;;;0.57;100.00
54806;BME280;62866;55.776;37.496;2024-01-25T00:22:09;98578.16;;;0.60;100.00
54806;BME280;62866;55.776;37.496;2024-01-25T00:24:34;98579.97;;;0.59;100.00
54806;BME280;62866;55.776;37.496;2024-01-25T00:27:02;98569.63;;;0.58;100.00
54806;BME280;62866;55.776;37.496;2024-01-25T00:29:30;98576.22;;;0.62;100.00
54806;BME280;62866;55.776;37.496;2024-01-25T00:31:56;98567.16;;;0.56;100.00
54806;BME280;62866;55.776;37.496;2024-01-25T00:34:21;98572.06;;;0.59;100.00
54806;BME280;62866;55.776;37.496;2024-01-25T00:36:47;98565.50;;;0.55;100.00
54806;BME280;62866;55.776;37.496;2024-01-25T00:39:13;98560.72;;;0.59;100.00
54806;BME280;62866;55.776;37.496;2024-01-25T00:41:40;98570.91;;;0.54;100.00
54806;BME280;62866;55.776;37.496;2024-01-25T00:44:07;98561.50;;;0.51;100.00
54806;BME280;62866;55.776;37.496;2024-01-25T00:46:32;98553.06;;;0.40;100.00
54806;BME280;62866;55.776;37.496;2024-01-25T00:48:58;98562.66;;;0.49;100.00
54806;BME280;62866;55.776;37.496;2024-01-25T00:51:24;98544.03;;;0.42;100.00
54806;BME280;62866;55.776;37.496;2024-01-25T00:53:50;98547.88;;;0.48;100.00
54806;BME280;62866;55.776;37.496;2024-01-25T00:56:15;98542.91;;;0.45;100.00
54806;BME280;62866;55.776;37.496;2024-01-25T00:58:41;98547.47;;;0.43;100.00
54806;BME280;62866;55.776;37.496;2024-01-25T01:01:07;98535.34;;;0.42;100.00
54806;BME280;62866;55.776;37.496;2024-01-25T01:03:35;98544.84;;;0.43;100.00
54806;BME280;62866;55.776;37.496;2024-01-25T01:06:01;98534.19;;;0.44;100.00
54806;BME280;62866;55.776;37.496;2024-01-25T01:08:27;98526.97;;;0.46;100.00
54806;BME280;62866;55.776;37.496;2024-01-25T01:10:53;98528.78;;;0.46;100.00
54806;BME280;62866;55.776;37.496;2024-01-25T01:13:18;98522.41;;;0.48;100.00
54806;BME280;62866;55.776;37.496;2024-01-25T01:15:44;98524.69;;;0.51;100.00
54806;BME280;62866;55.776;37.496;2024-01-25T01:18:09;98512.03;;;0.47;100.00
54806;BME280;62866;55.776;37.496;2024-01-25T01:20:35;98514.81;;;0.45;100.00
54806;BME280;62866;55.776;37.496;2024-01-25T01:23:00;98504.44;;;0.44;100.00
54806;BME280;62866;55.776;37.496;2024-01-25T01:25:26;98510.91;;;0.49;100.00
54806;BME280;62866;55.776;37.496;2024-01-25T01:27:51;98503.94;;;0.40;100.00
54806;BME280;62866;55.776;37.496;2024-01-25T01:30:17;98507.44;;;0.49;100.00
54806;BME280;62866;55.776;37.496;2024-01-25T01:32:42;98505.47;;;0.51;100.00
54806;BME280;62866;55.776;37.496;2024-01-25T01:35:08;98504.81;;;0.49;100.00
54806;BME280;62866;55.776;37.496;2024-01-25T01:37:33;98498.72;;;0.48;100.00
54806;BME280;62866;55.776;37.496;2024-01-25T01:39:59;98488.66;;;0.44;100.00
54806;BME280;62866;55.776;37.496;2024-01-25T01:42:27;98498.88;;;0.47;100.00
54806;BME280;62866;55.776;37.496;2024-01-25T01:44:53;98484.75;;;0.48;100.00
54806;BME280;62866;55.776;37.496;2024-01-25T01:47:19;98488.69;;;0.52;100.00
54806;BME280;62866;55.776;37.496;2024-01-25T01:49:44;98487.38;;;0.48;100.00
54806;BME280;62866;55.776;37.496;2024-01-25T01:52:11;98471.72;;;0.38;100.00
54806;BME280;62866;55.776;37.496;2024-01-25T01:54:37;98486.38;;;0.41;100.00
54806;BME280;62866;55.776;37.496;2024-01-25T01:57:03;98483.56;;;0.42;100.00
54806;BME280;62866;55.776;37.496;2024-01-25T01:59:29;98477.00;;;0.46;100.00
54806;BME280;62866;55.776;37.496;2024-01-25T02:01:56;98473.25;;;0.49;100.00
54806;BME280;62866;55.776;37.496;2024-01-25T02:04:21;98474.72;;;0.51;100.00
54806;BME280;62866;55.776;37.496;2024-01-25T02:06:47;98475.88;;;0.49;100.00
54806;BME280;62866;55.776;37.496;2024-01-25T02:09:13;98475.88;;;0.49;100.00
54806;BME280;62866;55.776;37.496;2024-01-25T02:11:38;98470.63;;;0.49;100.00
54806;BME280;62866;55.776;37.496;2024-01-25T02:14:04;98463.72;;;0.48;100.00
54806;BME280;62866;55.776;37.496;2024-01-25T02:16:30;98478.19;;;0.52;100.00
54806;BME280;62866;55.776;37.496;2024-01-25T02:18:56;98487.06;;;0.51;100.00
54806;BME280;62866;55.776;37.496;2024-01-25T02:21:23;98486.41;;;0.49;100.00
54806;BME280;62866;55.776;37.496;2024-01-25T02:23:50;98487.38;;;0.48;100.00
54806;BME280;62866;55.776;37.496;2024-01-25T02:26:15;98487.00;;;0.43;100.00
54806;BME280;62866;55.776;37.496;2024-01-25T02:28:41;98487.50;;;0.38;100.00
54806;BME280;62866;55.776;37.496;2024-01-25T02:31:06;98474.97;;;0.32;100.00
54806;BME280;62866;55.776;37.496;2024-01-25T02:33:32;98474.59;;;0.27;100.00
54806;BME280;62866;55.776;37.496;2024-01-25T02:35:57;98474.59;;;0.27;100.00
54806;BME280;62866;55.776;37.496;2024-01-25T02:38:23;98472.13;;;0.25;100.00
54806;BME280;62866;55.776;37.496;2024-01-25T02:40:49;98462.25;;;0.19;100.00
54806;BME280;62866;55.776;37.496;2024-01-25T02:43:14;98466.63;;;0.11;100.00
54806;BME280;62866;55.776;37.496;2024-01-25T02:45:40;98457.72;;;0.04;100.00
54806;BME280;62866;55.776;37.496;2024-01-25T02:48:05;98466.72;;;0.01;100.00
54806;BME280;62866;55.776;37.496;2024-01-25T02:50:31;98458.78;;;-0.07;100.00
54806;BME280;62866;55.776;37.496;2024-01-25T02:52:57;98452.88;;;-0.09;100.00
54806;BME280;62866;55.776;37.496;2024-01-25T02:55:23;98454.81;;;-0.11;100.00
54806;BME280;62866;55.776;37.496;2024-01-25T02:57:48;98435.72;;;-0.21;100.00
54806;BME280;62866;55.776;37.496;2024-01-25T03:00:14;98451.16;;;-0.18;99.95
54806;BME280;62866;55.776;37.496;2024-01-25T03:02:40;98454.09;;;-0.21;99.71
54806;BME280;62866;55.776;37.496;2024-01-25T03:05:06;98442.25;;;-0.25;99.23
54806;BME280;62866;55.776;37.496;2024-01-25T03:07:31;98444.50;;;-0.30;98.89
54806;BME280;62866;55.776;37.496;2024-01-25T03:09:57;98442.56;;;-0.28;98.68
54806;BME280;62866;55.776;37.496;2024-01-25T03:12:22;98449.59;;;-0.29;97.94
54806;BME280;62866;55.776;37.496;2024-01-25T03:14:48;98442.16;;;-0.33;97.90
54806;BME280;62866;55.776;37.496;2024-01-25T03:17:14;98435.94;;;-0.32;97.55
54806;BME280;62866;55.776;37.496;2024-01-25T03:19:39;98436.56;;;-0.39;98.24
54806;BME280;62866;55.776;37.496;2024-01-25T03:22:05;98430.81;;;-0.42;98.31
54806;BME280;62866;55.776;37.496;2024-01-25T03:24:30;98433.44;;;-0.42;98.47
54806;BME280;62866;55.776;37.496;2024-01-25T03:26:56;98438.97;;;-0.45;98.55
54806;BME280;62866;55.776;37.496;2024-01-25T03:29:21;98426.28;;;-0.50;98.46
54806;BME280;62866;55.776;37.496;2024-01-25T03:31:47;98431.41;;;-0.48;98.81
54806;BME280;62866;55.776;37.496;2024-01-25T03:34:13;98428.09;;;-0.50;98.83
54806;BME280;62866;55.776;37.496;2024-01-25T03:36:38;98435.81;;;-0.49;99.09
54806;BME280;62866;55.776;37.496;2024-01-25T03:39:05;98435.66;;;-0.47;99.34
54806;BME280;62866;55.776;37.496;2024-01-25T03:41:31;98426.97;;;-0.48;99.79
54806;BME280;62866;55.776;37.496;2024-01-25T03:43:56;98424.00;;;-0.53;100.00
54806;BME280;62866;55.776;37.496;2024-01-25T03:46:22;98423.50;;;-0.48;100.00
54806;BME280;62866;55.776;37.496;2024-01-25T03:48:47;98432.91;;;-0.46;100.00
54806;BME280;62866;55.776;37.496;2024-01-25T03:51:13;98416.16;;;-0.45;100.00
54806;BME280;62866;55.776;37.496;2024-01-25T03:53:38;98413.56;;;-0.45;100.00
54806;BME280;62866;55.776;37.496;2024-01-25T03:56:10;98417.97;;;-0.45;100.00
54806;BME280;62866;55.776;37.496;2024-01-25T03:58:37;98408.44;;;-0.46;100.00
54806;BME280;62866;55.776;37.496;2024-01-25T04:01:03;98408.75;;;-0.49;99.96
54806;BME280;62866;55.776;37.496;2024-01-25T04:03:28;98410.78;;;-0.43;100.00
54806;BME280;62866;55.776;37.496;2024-01-25T04:05:54;98419.63;;;-0.44;100.00
54806;BME280;62866;55.776;37.496;2024-01-25T04:08:19;98411.97;;;-0.38;100.00
54806;BME280;62866;55.776;37.496;2024-01-25T04:10:45;98404.97;;;-0.29;100.00
54806;BME280;62866;55.776;37.496;2024-01-25T04:13:10;98412.69;;;-0.27;100.00
54806;BME280;62866;55.776;37.496;2024-01-25T04:15:36;98406.63;;;-0.28;100.00
54806;BME280;62866;55.776;37.496;2024-01-25T04:18:01;98409.25;;;-0.28;100.00
54806;BME280;62866;55.776;37.496;2024-01-25T04:20:27;98413.66;;;-0.28;100.00
54806;BME280;62866;55.776;37.496;2024-01-25T04:22:53;98418.63;;;-0.25;100.00
54806;BME280;62866;55.776;37.496;2024-01-25T04:25:18;98403.31;;;-0.30;100.00
54806;BME280;62866;55.776;37.496;2024-01-25T04:27:44;98393.44;;;-0.36;100.00
54806;BME280;62866;55.776;37.496;2024-01-25T04:30:09;98415.00;;;-0.24;100.00
54806;BME280;62866;55.776;37.496;2024-01-25T04:32:35;98411.38;;;-0.23;100.00
54806;BME280;62866;55.776;37.496;2024-01-25T04:35:01;98410.88;;;-0.27;100.00
54806;BME280;62866;55.776;37.496;2024-01-25T04:37:26;98415.66;;;-0.22;100.00
54806;BME280;62866;55.776;37.496;2024-01-25T04:39:52;98412.06;;;-0.21;100.00
54806;BME280;62866;55.776;37.496;2024-01-25T04:42:18;98409.09;;;-0.26;100.00
54806;BME280;62866;55.776;37.496;2024-01-25T04:44:43;98425.00;;;-0.28;100.00
54806;BME280;62866;55.776;37.496;2024-01-25T04:47:09;98411.81;;;-0.36;100.00
54806;BME280;62866;55.776;37.496;2024-01-25T04:49:36;98410.84;;;-0.35;100.00
54806;BME280;62866;55.776;37.496;2024-01-25T04:52:01;98414.28;;;-0.34;100.00
54806;BME280;62866;55.776;37.496;2024-01-25T04:54:27;98408.16;;;-0.43;100.00
54806;BME280;62866;55.776;37.496;2024-01-25T04:56:53;98407.00;;;-0.41;100.00
54806;BME280;62866;55.776;37.496;2024-01-25T04:59:18;98416.16;;;-0.45;99.81
54806;BME280;62866;55.776;37.496;2024-01-25T05:01:44;98407.47;;;-0.45;99.80
54806;BME280;62866;55.776;37.496;2024-01-25T05:04:10;98409.94;;;-0.44;99.96
54806;BME280;62866;55.776;37.496;2024-01-25T05:06:35;98407.00;;;-0.41;100.00
54806;BME280;62866;55.776;37.496;2024-01-25T05:09:02;98404.69;;;-0.44;100.00
54806;BME280;62866;55.776;37.496;2024-01-25T05:11:27;98404.31;;;-0.49;99.70
54806;BME280;62866;55.776;37.496;2024-01-25T05:13:53;98412.03;;;-0.47;100.00
54806;BME280;62866;55.776;37.496;2024-01-25T05:16:18;98412.56;;;-0.44;100.00
54806;BME280;62866;55.776;37.496;2024-01-25T05:18:44;98419.16;;;-0.40;100.00
54806;BME280;62866;55.776;37.496;2024-01-25T05:21:09;98411.97;;;-0.38;100.00
54806;BME280;62866;55.776;37.496;2024-01-25T05:23:35;98413.41;;;-0.43;100.00
54806;BME280;62866;55.776;37.496;2024-01-25T05:26:01;98400.88;;;-0.49;100.00
54806;BME280;62866;55.776;37.496;2024-01-25T05:28:27;98409.72;;;-0.50;100.00
54806;BME280;62866;55.776;37.496;2024-01-25T05:30:52;98398.41;;;-0.51;99.77
54806;BME280;62866;55.776;37.496;2024-01-25T05:33:18;98400.50;;;-0.54;98.76
54806;BME280;62866;55.776;37.496;2024-01-25T05:35:43;98401.34;;;-0.54;98.20
54806;BME280;62866;55.776;37.496;2024-01-25T05:38:09;98401.63;;;-0.57;97.82
54806;BME280;62866;55.776;37.496;2024-01-25T05:40:34;98399.69;;;-0.55;98.29
54806;BME280;62866;55.776;37.496;2024-01-25T05:43:00;98417.59;;;-0.50;98.04
54806;BME280;62866;55.776;37.496;2024-01-25T05:45:25;98408.75;;;-0.49;98.17
54806;BME280;62866;55.776;37.496;2024-01-25T05:47:51;98412.88;;;-0.47;98.50
54806;BME280;62866;55.776;37.496;2024-01-25T05:50:17;98412.88;;;-0.47;98.93
54806;BME280;62866;55.776;37.496;2024-01-25T05:52:43;98408.97;;;-0.43;99.58
54806;BME280;62866;55.776;37.496;2024-01-25T05:55:08;98412.44;;;-0.42;98.82
54806;BME280;62866;55.776;37.496;2024-01-25T05:57:37;98407.31;;;-0.44;99.13
54806;BME280;62866;55.776;37.496;2024-01-25T06:00:04;98403.88;;;-0.44;98.46
54806;BME280;62866;55.776;37.496;2024-01-25T06:02:30;98409.28;;;-0.46;98.29
54806;BME280;62866;55.776;37.496;2024-01-25T06:04:56;98412.44;;;-0.42;98.64
54806;BME280;62866;55.776;37.496;2024-01-25T06:07:23;98401.41;;;-0.46;99.02
54806;BME280;62866;55.776;37.496;2024-01-25T06:09:50;98394.50;;;-0.47;98.64
54806;BME280;62866;55.776;37.496;2024-01-25T06:12:15;98401.41;;;-0.46;97.51
54806;BME280;62866;55.776;37.496;2024-01-25T06:14:41;98402.91;;;-0.43;96.93
54806;BME280;62866;55.776;37.496;2024-01-25T06:17:06;98399.94;;;-0.40;97.00
54806;BME280;62866;55.776;37.496;2024-01-25T06:19:32;98398.16;;;-0.40;97.27
54806;BME280;62866;55.776;37.496;2024-01-25T06:21:58;98397.16;;;-0.39;96.87
54806;BME280;62866;55.776;37.496;2024-01-25T06:24:24;98398.19;;;-0.31;97.44
54806;BME280;62866;55.776;37.496;2024-01-25T06:26:49;98404.13;;;-0.29;98.00
54806;BME280;62866;55.776;37.496;2024-01-25T06:29:15;98400.81;;;-0.31;97.39
54806;BME280;62866;55.776;37.496;2024-01-25T06:31:43;98401.22;;;-0.26;97.32
54806;BME280;62866;55.776;37.496;2024-01-25T06:34:10;98384.25;;;-0.32;96.53
54806;BME280;62866;55.776;37.496;2024-01-25T06:36:35;98398.25;;;-0.23;96.86
54806;BME280;62866;55.776;37.496;2024-01-25T06:39:01;98395.03;;;-0.17;97.32
54806;BME280;62866;55.776;37.496;2024-01-25T06:41:27;98407.34;;;-0.18;97.19
54806;BME280;62866;55.776;37.496;2024-01-25T06:43:52;98398.25;;;-0.23;97.20
54806;BME280;62866;55.776;37.496;2024-01-25T06:46:18;98395.63;;;-0.23;96.83
54806;BME280;62866;55.776;37.496;2024-01-25T06:48:43;98403.38;;;-0.22;97.42
54806;BME280;62866;55.776;37.496;2024-01-25T06:51:09;98400.44;;;-0.19;97.80
54806;BME280;62866;55.776;37.496;2024-01-25T06:53:34;98406.00;;;-0.22;97.63
54806;BME280;62866;55.776;37.496;2024-01-25T06:56:00;98401.03;;;-0.25;97.60
54806;BME280;62866;55.776;37.496;2024-01-25T06:58:25;98406.34;;;-0.17;97.79
54806;BME280;62866;55.776;37.496;2024-01-25T07:00:51;98404.25;;;-0.13;98.20
54806;BME280;62866;55.776;37.496;2024-01-25T07:03:18;98397.47;;;-0.16;98.35
54806;BME280;62866;55.776;37.496;2024-01-25T07:05:44;98400.16;;;-0.08;98.24
54806;BME280;62866;55.776;37.496;2024-01-25T07:08:09;98400.00;;;-0.06;98.34
54806;BME280;62866;55.776;37.496;2024-01-25T07:10:39;98402.97;;;-0.09;97.35
54806;BME280;62866;55.776;37.496;2024-01-25T07:13:05;98405.06;;;-0.13;96.24
54806;BME280;62866;55.776;37.496;2024-01-25T07:15:30;98408.97;;;-0.17;96.66
54806;BME280;62866;55.776;37.496;2024-01-25T07:17:56;98410.16;;;-0.11;97.19
54806;BME280;62866;55.776;37.496;2024-01-25T07:20:21;98415.47;;;-0.03;97.40
54806;BME280;62866;55.776;37.496;2024-01-25T07:22:47;98410.06;;;-0.02;97.94
54806;BME280;62866;55.776;37.496;2024-01-25T07:25:12;98405.25;;;-0.06;97.82
54806;BME280;62866;55.776;37.496;2024-01-25T07:27:38;98408.88;;;-0.07;98.09
54806;BME280;62866;55.776;37.496;2024-01-25T07:30:04;98406.72;;;-0.12;97.03
54806;BME280;62866;55.776;37.496;2024-01-25T07:32:30;98406.72;;;-0.12;96.40
54806;BME280;62866;55.776;37.496;2024-01-25T07:34:57;98410.84;;;-0.09;96.64
54806;BME280;62866;55.776;37.496;2024-01-25T07:37:23;98407.53;;;-0.11;96.15
54806;BME280;62866;55.776;37.496;2024-01-25T07:39:49;98411.78;;;-0.18;94.44
54806;BME280;62866;55.776;37.496;2024-01-25T07:42:14;98403.88;;;-0.18;94.08
54806;BME280;62866;55.776;37.496;2024-01-25T07:44:40;98414.75;;;-0.13;94.87
54806;BME280;62866;55.776;37.496;2024-01-25T07:47:05;98401.75;;;-0.15;95.26
54806;BME280;62866;55.776;37.496;2024-01-25T07:49:31;98406.19;;;-0.15;94.04
54806;BME280;62866;55.776;37.496;2024-01-25T07:51:56;98409.44;;;-0.21;92.28
54806;BME280;62866;55.776;37.496;2024-01-25T07:54:22;98409.59;;;-0.23;93.45
54806;BME280;62866;55.776;37.496;2024-01-25T07:56:48;98410.47;;;-0.14;94.36
54806;BME280;62866;55.776;37.496;2024-01-25T07:59:14;98413.91;;;-0.14;93.81
54806;BME280;62866;55.776;37.496;2024-01-25T08:01:40;98417.53;;;-0.15;93.36
54806;BME280;62866;55.776;37.496;2024-01-25T08:04:06;98411.09;;;-0.20;93.29
54806;BME280;62866;55.776;37.496;2024-01-25T08:06:31;98404.03;;;-0.20;92.30
54806;BME280;62866;55.776;37.496;2024-01-25T08:08:57;98410.41;;;-0.22;91.05
54806;BME280;62866;55.776;37.496;2024-01-25T08:11:22;98403.97;;;-0.28;90.12
54806;BME280;62866;55.776;37.496;2024-01-25T08:13:48;98407.09;;;-0.24;90.38
54806;BME280;62866;55.776;37.496;2024-01-25T08:16:14;98410.94;;;-0.19;91.27
54806;BME280;62866;55.776;37.496;2024-01-25T08:18:45;98402.03;;;-0.26;91.06
54806;BME280;62866;55.776;37.496;2024-01-25T08:21:11;98410.84;;;-0.09;90.33
54806;BME280;62866;55.776;37.496;2024-01-25T08:23:37;98411.19;;;-0.04;91.60
54806;BME280;62866;55.776;37.496;2024-01-25T08:26:04;98403.84;;;-0.01;91.28
54806;BME280;62866;55.776;37.496;2024-01-25T08:28:30;98403.34;;;0.04;90.31
54806;BME280;62866;55.776;37.496;2024-01-25T08:30:56;98398.63;;;0.08;91.25
54806;BME280;62866;55.776;37.496;2024-01-25T08:33:22;98404.91;;;0.15;90.86
54806;BME280;62866;55.776;37.496;2024-01-25T08:35:49;98399.13;;;0.11;89.33
54806;BME280;62866;55.776;37.496;2024-01-25T08:38:15;98409.78;;;0.10;89.42
54806;BME280;62866;55.776;37.496;2024-01-25T08:40:40;98407.16;;;0.10;89.13
54806;BME280;62866;55.776;37.496;2024-01-25T08:43:06;98405.16;;;0.04;87.92
54806;BME280;62866;55.776;37.496;2024-01-25T08:45:32;98401.84;;;0.02;87.93
54806;BME280;62866;55.776;37.496;2024-01-25T08:47:58;98393.63;;;-0.04;88.97
54806;BME280;62866;55.776;37.496;2024-01-25T08:50:23;98402.50;;;-0.05;88.21
54806;BME280;62866;55.776;37.496;2024-01-25T08:52:49;98410.72;;;0.00;88.41
54806;BME280;62866;55.776;37.496;2024-01-25T08:55:14;98406.66;;;0.06;89.44
54806;BME280;62866;55.776;37.496;2024-01-25T08:57:40;98405.88;;;0.14;90.61
54806;BME280;62866;55.776;37.496;2024-01-25T09:00:07;98403.09;;;0.15;90.34
54806;BME280;62866;55.776;37.496;2024-01-25T09:02:36;98401.78;;;0.19;91.31
54806;BME280;62866;55.776;37.496;2024-01-25T09:05:02;98401.13;;;0.17;91.17
54806;BME280;62866;55.776;37.496;2024-01-25T09:07:28;98406.56;;;0.16;91.59
54806;BME280;62866;55.776;37.496;2024-01-25T09:09:54;98403.59;;;0.19;91.28
54806;BME280;62866;55.776;37.496;2024-01-25T09:12:20;98396.88;;;0.16;89.62
54806;BME280;62866;55.776;37.496;2024-01-25T09:14:45;98388.59;;;0.11;90.24
54806;BME280;62866;55.776;37.496;2024-01-25T09:17:11;98405.91;;;0.22;90.45
54806;BME280;62866;55.776;37.496;2024-01-25T09:19:37;98407.56;;;0.23;90.82
54806;BME280;62866;55.776;37.496;2024-01-25T09:22:02;98409.03;;;0.25;90.93
54806;BME280;62866;55.776;37.496;2024-01-25T09:24:30;98410.00;;;0.16;89.83
54806;BME280;62866;55.776;37.496;2024-01-25T09:26:56;98404.75;;;0.16;90.05
54806;BME280;62866;55.776;37.496;2024-01-25T09:29:24;98401.28;;;0.16;89.97
54806;BME280;62866;55.776;37.496;2024-01-25T09:31:49;98408.97;;;0.09;88.57
54806;BME280;62866;55.776;37.496;2024-01-25T09:34:15;98402.03;;;0.00;87.01
54806;BME280;62866;55.776;37.496;2024-01-25T09:36:41;98401.81;;;-0.07;86.03
54806;BME280;62866;55.776;37.496;2024-01-25T09:39:06;98398.97;;;-0.13;86.27
54806;BME280;62866;55.776;37.496;2024-01-25T09:41:32;98401.47;;;-0.12;85.41
54806;BME280;62866;55.776;37.496;2024-01-25T09:43:57;98400.09;;;-0.16;85.11
54806;BME280;62866;55.776;37.496;2024-01-25T09:46:23;98384.16;;;-0.22;85.26
54806;BME280;62866;55.776;37.496;2024-01-25T09:48:49;98386.78;;;-0.22;85.33
54806;BME280;62866;55.776;37.496;2024-01-25T09:51:15;98381.84;;;-0.25;85.14
54806;BME280;62866;55.776;37.496;2024-01-25T09:53:41;98385.28;;;-0.25;84.91
54806;BME280;62866;55.776;37.496;2024-01-25T09:56:09;98386.63;;;-0.21;86.11
54806;BME280;62866;55.776;37.496;2024-01-25T09:58:42;98374.78;;;-0.25;85.28
54806;BME280;62866;55.776;37.496;2024-01-25T10:01:27;98368.19;;;-0.29;84.97
54806;BME280;62866;55.776;37.496;2024-01-25T10:03:53;98378.59;;;-0.19;85.32
54806;BME280;62866;55.776;37.496;2024-01-25T10:06:21;98379.63;;;-0.12;84.23
54806;BME280;62866;55.776;37.496;2024-01-25T10:08:47;98377.09;;;-0.22;84.82
54806;BME280;62866;55.776;37.496;2024-01-25T10:11:12;98372.31;;;-0.26;85.21
54806;BME280;62866;55.776;37.496;2024-01-25T10:13:46;98377.41;;;-0.25;85.80
54806;BME280;62866;55.776;37.496;2024-01-25T10:18:43;98382.00;;;-0.27;85.49
54806;BME280;62866;55.776;37.496;2024-01-25T10:21:13;98377.56;;;-0.26;85.62
54806;BME280;62866;55.776;37.496;2024-01-25T10:23:39;98373.16;;;-0.26;85.72
54806;BME280;62866;55.776;37.496;2024-01-25T10:26:07;98381.03;;;-0.26;85.91
54806;BME280;62866;55.776;37.496;2024-01-25T10:28:33;98379.88;;;-0.23;86.10
54806;BME280;62866;55.776;37.496;2024-01-25T10:31:03;98382.41;;;-0.14;86.69
54806;BME280;62866;55.776;37.496;2024-01-25T10:33:30;98379.38;;;-0.01;87.19
54806;BME280;62866;55.776;37.496;2024-01-25T10:35:59;98373.47;;;0.05;87.03
54806;BME280;62866;55.776;37.496;2024-01-25T10:38:36;98372.94;;;0.02;85.87
54806;BME280;62866;55.776;37.496;2024-01-25T10:41:04;98370.66;;;-0.02;85.68
54806;BME280;62866;55.776;37.496;2024-01-25T10:43:30;98378.53;;;-0.02;85.53
54806;BME280;62866;55.776;37.496;2024-01-25T10:45:59;98375.38;;;-0.05;85.57
54806;BME280;62866;55.776;37.496;2024-01-25T10:48:25;98384.56;;;-0.09;85.79
54806;BME280;62866;55.776;37.496;2024-01-25T10:50:52;98389.00;;;-0.10;86.09
54806;BME280;62866;55.776;37.496;2024-01-25T10:53:19;98379.09;;;-0.16;86.26
54806;BME280;62866;55.776;37.496;2024-01-25T10:55:45;98383.03;;;-0.20;86.22
54806;BME280;62866;55.776;37.496;2024-01-25T10:58:13;98380.56;;;-0.21;86.25
54806;BME280;62866;55.776;37.496;2024-01-25T11:00:39;98387.09;;;-0.25;86.64
54806;BME280;62866;55.776;37.496;2024-01-25T11:03:06;98386.44;;;-0.27;87.02
54806;BME280;62866;55.776;37.496;2024-01-25T11:05:31;98386.44;;;-0.27;87.74
54806;BME280;62866;55.776;37.496;2024-01-25T11:07:57;98378.69;;;-0.29;87.01
54806;BME280;62866;55.776;37.496;2024-01-25T11:10:27;98372.63;;;-0.29;87.19
54806;BME280;62866;55.776;37.496;2024-01-25T11:12:56;98381.84;;;-0.25;87.15
54806;BME280;62866;55.776;37.496;2024-01-25T11:15:24;98376.41;;;-0.24;87.10
54806;BME280;62866;55.776;37.496;2024-01-25T11:17:55;98382.00;;;-0.27;87.34
54806;BME280;62866;55.776;37.496;2024-01-25T11:20:25;98379.56;;;-0.20;87.65
54806;BME280;62866;55.776;37.496;2024-01-25T11:22:58;98367.56;;;-0.23;87.62
54806;BME280;62866;55.776;37.496;2024-01-25T11:25:34;98380.59;;;-0.13;87.09
54806;BME280;62866;55.776;37.496;2024-01-25T11:28:02;98381.41;;;-0.13;87.07
54806;BME280;62866;55.776;37.496;2024-01-25T11:30:33;98388.19;;;-0.10;86.36
54806;BME280;62866;55.776;37.496;2024-01-25T11:32:59;98382.25;;;-0.12;86.32
54806;BME280;62866;55.776;37.496;2024-01-25T11:35:25;98385.84;;;-0.13;86.53
54806;BME280;62866;55.776;37.496;2024-01-25T11:37:51;98392.09;;;-0.14;86.54
54806;BME280;62866;55.776;37.496;2024-01-25T11:40:17;98387.44;;;-0.20;86.33
54806;BME280;62866;55.776;37.496;2024-01-25T11:42:44;98387.09;;;-0.25;87.14
54806;BME280;62866;55.776;37.496;2024-01-25T11:45:11;98388.91;;;-0.26;87.52
54806;BME280;62866;55.776;37.496;2024-01-25T11:47:38;98395.44;;;-0.30;86.67
54806;BME280;62866;55.776;37.496;2024-01-25T11:50:05;98391.25;;;-0.41;87.20
54806;BME280;62866;55.776;37.496;2024-01-25T11:52:32;98394.50;;;-0.47;87.97
54806;BME280;62866;55.776;37.496;2024-01-25T11:55:02;98388.88;;;-0.52;88.57
54806;BME280;62866;55.776;37.496;2024-01-25T11:57:30;98388.22;;;-0.54;88.87
54806;BME280;62866;55.776;37.496;2024-01-25T11:59:56;98392.78;;;-0.56;89.21
54806;BME280;62866;55.776;37.496;2024-01-25T12:02:22;98393.09;;;-0.59;88.86
54806;BME280;62866;55.776;37.496;2024-01-25T12:04:49;98393.91;;;-0.58;89.32
54806;BME280;62866;55.776;37.496;2024-01-25T12:07:15;98398.50;;;-0.60;89.47
54806;BME280;62866;55.776;37.496;2024-01-25T12:09:41;98399.31;;;-0.60;89.31
54806;BME280;62866;55.776;37.496;2024-01-25T12:12:08;98405.22;;;-0.58;89.87
54806;BME280;62866;55.776;37.496;2024-01-25T12:14:34;98399.69;;;-0.55;89.84
54806;BME280;62866;55.776;37.496;2024-01-25T12:17:00;98396.38;;;-0.57;89.70
54806;BME280;62866;55.776;37.496;2024-01-25T12:19:28;98399.47;;;-0.61;89.99
54806;BME280;62866;55.776;37.496;2024-01-25T12:21:55;98402.25;;;-0.63;89.91
54806;BME280;62866;55.776;37.496;2024-01-25T12:24:21;98404.19;;;-0.65;90.10
54806;BME280;62866;55.776;37.496;2024-01-25T12:26:47;98406.53;;;-0.62;90.41
54806;BME280;62866;55.776;37.496;2024-01-25T12:29:13;98404.19;;;-0.65;90.26
54806;BME280;62866;55.776;37.496;2024-01-25T12:31:38;98407.78;;;-0.66;90.31
54806;BME280;62866;55.776;37.496;2024-01-25T12:34:13;98411.22;;;-0.65;90.21
54806;BME280;62866;55.776;37.496;2024-01-25T12:36:40;98409.59;;;-0.66;90.30
54806;BME280;62866;55.776;37.496;2024-01-25T12:39:06;98405.84;;;-0.64;91.11
54806;BME280;62866;55.776;37.496;2024-01-25T12:41:32;98405.69;;;-0.62;90.88
54806;BME280;62866;55.776;37.496;2024-01-25T12:43:57;98403.34;;;-0.65;90.58
54806;BME280;62866;55.776;37.496;2024-01-25T12:46:23;98412.38;;;-0.68;91.02